This is the latest recevied weather packets stored in our database for station/object AB2HM. If no packets are shown the sender has not sent any weather packets the latest 10 day(s).
| Time | Temp. | Humidity | Pressure | Rain* | Wind** | Luminosity | Snow |
|---|---|---|---|---|---|---|---|
| 1788535763 | 30° C | 60% | 1014.3 hPa | 0 mm | - | - | - |
| 1788533942 | 29.44° C | 61% | 1014.2 hPa | 0 mm | - | - | - |
| 1788532138 | 28.33° C | 66% | 1014.1 hPa | 0 mm | - | - | - |
| 1788530325 | 27.78° C | 70% | 1014 hPa | 0 mm | - | - | - |
| 1788528521 | 26.67° C | 74% | 1014 hPa | 0 mm | - | - | - |
| 1788526710 | 25.56° C | 80% | 1014.2 hPa | 0 mm | - | - | - |
| 1788524894 | 24.44° C | 83% | 1014.3 hPa | 0 mm | - | - | - |
| 1788523080 | 23.89° C | 87% | 1014.3 hPa | 0 mm | - | - | - |
| 1788521273 | 23.33° C | 90% | 1013.9 hPa | 0 mm | - | - | - |
| 1788519470 | 23.33° C | 90% | 1013.8 hPa | 0 mm | - | - | - |
| 1788517667 | 23.33° C | 90% | 1013.2 hPa | 0 mm | - | - | - |
| 1788515864 | 23.89° C | 91% | 1013.3 hPa | 0 mm | - | - | - |
| 1788514057 | 24.44° C | 92% | 1013.5 hPa | 0 mm | - | - | - |
| 1788512249 | 24.44° C | 93% | 1013.7 hPa | 0 mm | - | - | - |
| 1788510442 | 24.44° C | 93% | 1013.6 hPa | 0 mm | - | - | - |
| 1788508621 | 23.89° C | 93% | 1013.7 hPa | 0 mm | - | - | - |
| 1788506807 | 23.89° C | 93% | 1013.5 hPa | 0 mm | - | - | - |
| 1788505005 | 23.89° C | 92% | 1013.2 hPa | 0 mm | - | - | - |
| 1788503202 | 23.89° C | 92% | 1013.1 hPa | 1.02 mm | - | - | - |
| 1788501390 | 23.89° C | 91% | 1013.2 hPa | 3.56 mm | - | - | - |
| 1788499581 | 23.89° C | 90% | 1013.6 hPa | 5.84 mm | - | - | - |
| 1788497768 | 23.89° C | 89% | 1013.8 hPa | 4.32 mm | - | - | - |
| 1788495961 | 25.56° C | 83% | 1015.3 hPa | 1.02 mm | - | - | - |
| 1788494159 | 26.11° C | 82% | 1014.2 hPa | 0 mm | - | - | - |
| 1788492350 | 26.11° C | 81% | 1014.6 hPa | 0 mm | - | - | - |
* Rain latest hour (hover to see other rain measurements)
** Current wind speed in m/s (hover to see current wind gust speed)